Terminal Aerodrome Forecast
Issued by NWS

Home | Current Version | Previous Version | Text Only | Print | Product List | Glossary On
Versions: 1 2 3 4 5 6 7 8 9 10 11 12 13 14
688
FTUS44 KTSA 211136
TAFXNA
TAF
KXNA 211136Z 2112/2212 09011KT P6SM -SHRA BKN100
     FM211600 10007KT P6SM -SHRA OVC080
     FM212000 10007KT 5SM -RA OVC030
     FM220600 07006KT 6SM -SHRA BR VCTS OVC008CB=

USA.gov is the U.S. government's official web portal to all federal, state and local government web resources and services.